Time;durP1;ratioP1;P1;durP2;ratioP2;P2;SDS_P1;SDS_P2;PMS_P1;PMS_P2;Temp;Humidity;BMP_temperature;BMP_pressure;BME280_temperature;BME280_humidity;BME280_pressure;Samples;Min_cycle;Max_cycle;Signal;HPM_P1;HPM_P2
2020/12/02 00:00:41;;;;;;;62.45;26.05;;;;;;;2.22;93.67;100780.44;5082445;28;20539;-78
2020/12/02 00:03:33;;;;;;;59.50;25.33;;;;;;;2.21;93.76;100782.19;5084386;28;20046;-76
2020/12/02 00:06:02;;;;;;;66.07;27.00;;;;;;;2.22;93.93;100794.38;5085748;28;20074;-78
2020/12/02 00:08:33;;;;;;;62.58;26.98;;;;;;;2.23;93.65;100788.28;5083205;28;20052;-78
2020/12/02 00:11:03;;;;;;;61.00;26.27;;;;;;;2.21;92.92;100789.16;5077450;28;20046;-76
2020/12/02 00:13:33;;;;;;;60.33;26.83;;;;;;;2.18;92.97;100786.59;5074871;28;20127;-77
2020/12/02 00:16:07;;;;;;;56.88;26.00;;;;;;;2.14;93.36;100788.34;5075863;28;20053;-79
2020/12/02 00:18:35;;;;;;;54.17;24.27;;;;;;;2.09;93.21;100791.00;5080561;28;20044;-77
2020/12/02 00:21:07;;;;;;;58.78;26.00;;;;;;;2.05;92.97;100783.16;5080646;28;20127;-76
2020/12/02 00:23:35;;;;;;;54.33;25.17;;;;;;;2.03;93.14;100796.28;5081025;28;20044;-77
2020/12/02 00:26:06;;;;;;;55.50;24.58;;;;;;;2.00;93.17;100790.19;5082922;28;20051;-78
2020/12/02 00:28:33;;;;;;;53.80;24.33;;;;;;;1.97;93.32;100788.47;5077784;28;20052;-79
2020/12/02 00:30:59;;;;;;;51.08;24.00;;;;;;;1.98;93.32;100791.94;5084492;28;20470;-79
2020/12/02 00:33:26;;;;;;;50.70;23.90;;;;;;;1.92;92.77;100800.66;5083125;28;20819;-78
2020/12/02 00:35:53;;;;;;;53.95;24.80;;;;;;;1.92;93.20;100798.03;5076500;28;20055;-77
2020/12/02 00:38:21;;;;;;;57.97;26.35;;;;;;;1.89;93.00;100794.63;5086386;28;20393;-77
2020/12/02 00:40:51;;;;;;;52.38;24.17;;;;;;;1.94;93.53;100798.91;5085560;28;20040;-78
2020/12/02 00:43:21;;;;;;;51.55;24.17;;;;;;;1.98;93.16;100799.78;5095669;28;20048;-77
2020/12/02 00:45:49;;;;;;;49.78;24.42;;;;;;;1.99;93.37;100804.13;5089021;28;20494;-77
2020/12/02 00:48:19;;;;;;;51.10;24.35;;;;;;;2.03;93.58;100804.09;5079961;28;20048;-79
2020/12/02 00:50:47;;;;;;;52.72;24.50;;;;;;;1.97;93.04;100798.91;5081351;28;20040;-76
2020/12/02 00:53:16;;;;;;;47.67;23.67;;;;;;;1.96;92.47;100794.56;5083887;28;20072;-77
2020/12/02 00:55:44;;;;;;;57.10;26.00;;;;;;;2.00;92.75;100798.03;5076240;28;20059;-76
2020/12/02 00:58:49;;;;;;;51.78;24.15;;;;;;;2.02;93.37;100791.03;5078929;28;20502;-78
2020/12/02 01:01:28;;;;;;;47.08;23.48;;;;;;;2.05;93.23;100783.16;5077711;28;20055;-79
2020/12/02 01:03:57;;;;;;;47.60;23.92;;;;;;;2.08;93.37;100780.53;5078057;28;20048;-79
2020/12/02 01:06:23;;;;;;;51.50;24.98;;;;;;;2.11;92.89;100784.00;5082662;28;20066;-78
2020/12/02 01:08:50;;;;;;;47.53;24.83;;;;;;;2.15;92.87;100782.25;5082387;28;20055;-80
2020/12/02 01:11:28;;;;;;;47.45;23.20;;;;;;;2.13;92.08;100780.53;5076382;28;20055;-78
2020/12/02 01:13:59;;;;;;;48.80;23.60;;;;;;;2.12;93.01;100782.25;5079816;28;20051;-78
2020/12/02 01:16:34;;;;;;;47.00;23.00;;;;;;;2.11;93.36;100784.00;5082311;28;20044;-78
2020/12/02 01:19:01;;;;;;;46.97;23.05;;;;;;;2.05;92.80;100786.66;5077659;28;20395;-76
2020/12/02 01:21:31;;;;;;;48.42;22.92;;;;;;;2.05;92.86;100783.16;5074927;28;20053;-79
2020/12/02 01:24:02;;;;;;;49.92;23.55;;;;;;;2.00;92.57;100785.84;5079371;28;20048;-78
2020/12/02 01:26:35;;;;;;;50.95;23.70;;;;;;;2.02;92.95;100778.84;5075017;28;20605;-78
2020/12/02 01:29:10;;;;;;;45.95;23.02;;;;;;;2.07;92.82;100790.13;5075976;28;20052;-78
2020/12/02 01:31:36;;;;;;;43.92;23.50;;;;;;;2.09;93.08;100790.13;5078887;28;20044;-80
2020/12/02 01:34:02;;;;;;;47.50;22.58;;;;;;;2.07;92.93;100792.75;5075727;28;20126;-79
2020/12/02 01:36:48;;;;;;;46.38;23.38;;;;;;;2.07;92.93;100781.41;5082562;28;21615;-78
2020/12/02 01:39:16;;;;;;;47.97;22.70;;;;;;;2.11;93.41;100781.41;5083467;28;20066;-79
2020/12/02 01:41:43;;;;;;;50.60;23.77;;;;;;;2.13;93.22;100776.16;5082625;28;20135;-78
2020/12/02 01:44:10;;;;;;;47.25;23.63;;;;;;;2.13;92.08;100770.94;5080136;28;20060;-78
2020/12/02 01:47:13;;;;;;;49.13;23.48;;;;;;;2.09;92.04;100775.31;5077369;28;20092;-79
2020/12/02 01:50:11;;;;;;;52.13;24.52;;;;;;;2.09;92.55;100769.22;5078324;28;20050;-79
2020/12/02 01:52:50;;;;;;;49.70;23.50;;;;;;;2.10;92.48;100771.81;5086151;28;20215;-75
2020/12/02 01:55:25;;;;;;;46.42;22.38;;;;;;;2.10;91.60;100776.19;5088780;28;20066;-81
2020/12/02 01:57:58;;;;;;;47.80;22.45;;;;;;;2.09;92.14;100770.09;5087417;28;20051;-77
2020/12/02 02:00:33;;;;;;;45.40;22.20;;;;;;;2.07;92.04;100765.75;5078387;28;20048;-79
2020/12/02 02:03:15;;;;;;;46.90;22.65;;;;;;;2.05;91.84;100762.28;5079101;28;20048;-77
2020/12/02 02:06:00;;;;;;;50.38;22.35;;;;;;;2.08;92.52;100765.75;5085220;28;20083;-78
2020/12/02 02:08:32;;;;;;;50.28;23.83;;;;;;;2.08;92.05;100764.88;5086992;28;20070;-81
2020/12/02 02:11:03;;;;;;;46.92;22.27;;;;;;;2.08;92.65;100763.13;5099144;28;20062;-81
2020/12/02 02:13:51;;;;;;;46.90;22.33;;;;;;;2.07;92.37;100764.00;5086714;28;20127;-77
2020/12/02 02:16:23;;;;;;;48.75;22.83;;;;;;;2.09;92.08;100764.88;5083911;28;20173;-76
2020/12/02 02:18:50;;;;;;;49.97;23.00;;;;;;;2.13;92.79;100762.22;5082001;28;20036;-79
2020/12/02 02:21:27;;;;;;;46.80;23.38;;;;;;;2.15;92.26;100757.88;5087654;28;20048;-78
2020/12/02 02:23:53;;;;;;;47.17;21.88;;;;;;;2.16;92.38;100763.09;5080685;28;20042;-80
2020/12/02 02:26:27;;;;;;;46.22;22.83;;;;;;;2.17;92.28;100767.44;5080169;28;20084;-77
2020/12/02 02:29:08;;;;;;;45.40;21.00;;;;;;;2.17;91.96;100764.81;5079578;28;20079;-77
2020/12/02 02:31:46;;;;;;;50.60;23.38;;;;;;;2.13;91.99;100764.84;5085210;28;20058;-80
2020/12/02 02:34:13;;;;;;;43.60;21.63;;;;;;;2.17;92.18;100767.44;5082397;28;20052;-79
2020/12/02 02:36:40;;;;;;;48.65;23.45;;;;;;;2.18;92.14;100769.19;5071836;28;20048;-80
2020/12/02 02:39:09;;;;;;;42.78;21.15;;;;;;;2.15;91.79;100774.41;5077213;28;20044;-78
2020/12/02 02:41:36;;;;;;;45.58;23.05;;;;;;;2.11;91.19;100767.47;5084461;28;20047;-81
2020/12/02 02:44:04;;;;;;;47.45;22.30;;;;;;;2.10;91.13;100769.22;5076616;28;20468;-78
2020/12/02 02:46:30;;;;;;;47.65;22.77;;;;;;;2.05;90.95;100770.09;5083972;28;20052;-78
2020/12/02 02:48:57;;;;;;;40.75;21.30;;;;;;;2.04;91.85;100771.88;5083152;28;20070;-77
2020/12/02 02:51:23;;;;;;;45.65;22.70;;;;;;;2.08;91.87;100772.72;5083150;28;20048;-77
2020/12/02 02:53:50;;;;;;;45.00;21.55;;;;;;;2.02;91.62;100760.56;5079607;28;20044;-78
2020/12/02 02:56:16;;;;;;;44.72;22.05;;;;;;;2.05;91.73;100762.28;5088809;28;20056;-77
2020/12/02 02:58:42;;;;;;;45.25;22.33;;;;;;;2.03;91.99;100758.84;5078566;28;20051;-78
2020/12/02 03:01:09;;;;;;;46.97;22.80;;;;;;;2.05;91.83;100770.97;5079399;28;20056;-78
2020/12/02 03:03:36;;;;;;;44.53;22.17;;;;;;;2.05;91.82;100764.88;5080834;28;20060;-78
2020/12/02 03:06:04;;;;;;;41.63;20.55;;;;;;;2.04;91.62;100761.44;5081329;28;20055;-81
2020/12/02 03:08:32;;;;;;;42.03;21.42;;;;;;;2.06;91.82;100764.00;5075261;28;20086;-79
2020/12/02 03:11:01;;;;;;;46.00;23.05;;;;;;;2.06;91.68;100769.22;5079187;28;20055;-80
2020/12/02 03:13:38;;;;;;;43.70;22.70;;;;;;;2.07;92.63;100760.53;5080550;28;20062;-80
2020/12/02 03:16:15;;;;;;;46.30;22.95;;;;;;;2.11;92.66;100757.03;5076539;28;20162;-77
2020/12/02 03:18:44;;;;;;;48.80;23.13;;;;;;;2.14;92.13;100753.53;5085331;28;20128;-82
2020/12/02 03:21:14;;;;;;;43.78;22.33;;;;;;;2.10;92.29;100750.06;5091641;28;20033;-81
2020/12/02 03:23:41;;;;;;;44.03;22.48;;;;;;;2.08;91.47;100751.81;5095736;28;20056;-79
2020/12/02 03:26:10;;;;;;;45.42;22.08;;;;;;;2.07;91.44;100753.56;5071008;28;20542;-78
2020/12/02 03:28:36;;;;;;;44.13;23.25;;;;;;;2.05;91.03;100752.69;5079227;28;20062;-76
2020/12/02 03:31:08;;;;;;;44.53;22.30;;;;;;;2.07;91.19;100760.53;5085409;28;20061;-77
2020/12/02 03:33:34;;;;;;;43.33;22.58;;;;;;;2.07;91.32;100765.75;5090366;28;20054;-81
2020/12/02 03:36:01;;;;;;;44.38;23.02;;;;;;;2.10;91.59;100776.19;5095125;28;20397;-81
2020/12/02 03:38:27;;;;;;;42.65;21.73;;;;;;;2.11;91.24;100765.72;5096996;28;20028;-82
2020/12/02 03:40:56;;;;;;;46.85;23.38;;;;;;;2.13;91.46;100768.34;5101806;28;20055;-82
2020/12/02 03:43:22;;;;;;;47.08;22.02;;;;;;;2.18;91.02;100771.78;5098013;28;20059;-80
2020/12/02 03:45:50;;;;;;;44.45;22.25;;;;;;;2.17;90.71;100772.66;5091225;28;20083;-83
2020/12/02 03:48:17;;;;;;;44.60;23.38;;;;;;;2.17;91.13;100769.19;5092919;28;20056;-77
2020/12/02 03:50:46;;;;;;;38.35;21.17;;;;;;;2.19;90.25;100770.91;5099319;28;20199;-78
2020/12/02 03:53:14;;;;;;;43.33;21.95;;;;;;;2.15;90.74;100763.97;5096678;28;20071;-79
2020/12/02 03:55:40;;;;;;;39.15;21.85;;;;;;;2.18;90.30;100769.19;5082199;28;20044;-78
2020/12/02 03:58:07;;;;;;;40.28;21.80;;;;;;;2.21;91.20;100765.66;5080022;28;20138;-79
2020/12/02 04:00:35;;;;;;;42.90;21.92;;;;;;;2.21;90.95;100758.69;5090213;28;20051;-78
2020/12/02 04:03:02;;;;;;;43.05;22.05;;;;;;;2.21;92.04;100763.03;5080063;28;20743;-77
2020/12/02 04:05:28;;;;;;;41.85;21.98;;;;;;;2.23;91.14;100767.38;5078741;28;20128;-78
2020/12/02 04:07:55;;;;;;;43.30;22.13;;;;;;;2.22;91.13;100759.53;5080767;28;20935;-78
2020/12/02 04:10:21;;;;;;;40.80;21.23;;;;;;;2.25;91.09;100759.53;5087214;28;20040;-78
2020/12/02 04:12:49;;;;;;;40.63;20.92;;;;;;;2.23;91.18;100751.69;5084975;28;20469;-76
2020/12/02 04:15:17;;;;;;;40.50;21.23;;;;;;;2.24;91.68;100750.81;5079949;28;20051;-78
2020/12/02 04:17:44;;;;;;;40.70;21.45;;;;;;;2.24;91.63;100748.22;5088594;28;20060;-76
2020/12/02 04:20:10;;;;;;;41.90;22.20;;;;;;;2.23;91.34;100751.69;5085900;28;20129;-77
2020/12/02 04:22:37;;;;;;;37.88;20.23;;;;;;;2.24;90.67;100755.19;5079467;28;20051;-78
2020/12/02 04:25:05;;;;;;;42.13;21.20;;;;;;;2.19;91.19;100747.41;5080297;28;20058;-77
2020/12/02 04:27:32;;;;;;;41.17;20.33;;;;;;;2.22;91.32;100742.13;5081603;28;20052;-79
2020/12/02 04:29:59;;;;;;;39.28;20.25;;;;;;;2.27;91.23;100745.59;5093411;28;20116;-80
2020/12/02 04:32:25;;;;;;;40.70;20.33;;;;;;;2.24;91.31;100742.97;5093498;28;20110;-83
2020/12/02 04:34:52;;;;;;;40.55;20.65;;;;;;;2.24;91.11;100731.66;5085055;28;20062;-81
2020/12/02 04:37:18;;;;;;;37.47;19.50;;;;;;;2.25;91.07;100734.28;5074328;28;20076;-78
2020/12/02 04:39:44;;;;;;;40.35;20.63;;;;;;;2.26;90.98;100743.84;5070071;28;20108;-78
2020/12/02 04:42:11;;;;;;;40.53;20.95;;;;;;;2.24;90.80;100735.16;5072301;28;20052;-81
2020/12/02 04:44:37;;;;;;;45.00;20.50;;;;;;;2.26;90.94;100741.22;5073044;28;20047;-80
2020/12/02 04:47:12;;;;;;;42.15;21.45;;;;;;;2.29;90.86;100737.72;5074744;28;21330;-80
2020/12/02 04:49:39;;;;;;;39.70;21.33;;;;;;;2.26;90.83;100735.13;5075879;28;21164;-79
2020/12/02 04:52:14;;;;;;;43.20;20.75;;;;;;;2.25;90.64;100734.28;5073610;28;20047;-80
2020/12/02 04:54:41;;;;;;;39.83;20.60;;;;;;;2.23;90.63;100728.19;5075418;28;20044;-78
2020/12/02 04:57:09;;;;;;;37.08;20.17;;;;;;;2.24;91.14;100732.53;5079020;28;20155;-78
2020/12/02 04:59:43;;;;;;;45.00;21.90;;;;;;;2.22;90.67;100739.50;5079574;28;20060;-81
2020/12/02 05:02:23;;;;;;;42.80;22.23;;;;;;;2.21;90.79;100735.16;5088418;28;20078;-79
2020/12/02 05:04:55;;;;;;;41.50;21.17;;;;;;;2.22;90.85;100747.34;5086155;28;20055;-79
2020/12/02 05:07:26;;;;;;;41.05;20.45;;;;;;;2.23;90.65;100741.25;5090911;28;20057;-79
2020/12/02 05:09:57;;;;;;;44.15;21.35;;;;;;;2.21;90.36;100747.34;5086424;28;20135;-77
2020/12/02 05:12:26;;;;;;;38.42;20.40;;;;;;;2.20;90.59;100750.88;5090803;28;20130;-78
2020/12/02 05:14:52;;;;;;;46.30;22.38;;;;;;;2.22;90.84;100755.19;5092896;28;20074;-78
2020/12/02 05:17:29;;;;;;;42.03;21.67;;;;;;;2.20;90.34;100751.75;5086238;28;20047;-77
2020/12/02 05:20:13;;;;;;;43.15;21.52;;;;;;;2.18;90.87;100753.50;5087974;28;20178;-78
2020/12/02 05:22:46;;;;;;;44.35;21.48;;;;;;;2.19;91.10;100752.63;5092556;28;20044;-78
2020/12/02 05:25:33;;;;;;;45.00;21.88;;;;;;;2.18;90.48;100748.28;5087973;28;20067;-78
2020/12/02 05:28:40;;;;;;;45.10;21.90;;;;;;;2.19;90.79;100742.19;5086558;28;20052;-80
2020/12/02 05:31:19;;;;;;;44.67;21.80;;;;;;;2.20;91.38;100746.53;5085099;28;20430;-76
2020/12/02 05:33:46;;;;;;;47.20;23.50;;;;;;;2.23;90.69;100743.84;5088153;28;20048;-78
2020/12/02 05:36:17;;;;;;;46.50;23.20;;;;;;;2.26;90.81;100741.22;5102031;28;20109;-79
2020/12/02 05:38:52;;;;;;;44.83;23.00;;;;;;;2.25;90.16;100749.06;5088113;28;20044;-76
2020/12/02 05:41:19;;;;;;;45.75;21.70;;;;;;;2.23;89.74;100736.03;5092083;28;20058;-78
2020/12/02 05:43:58;;;;;;;46.95;23.05;;;;;;;2.25;89.56;100739.50;5086308;28;20055;-76
2020/12/02 05:46:44;;;;;;;42.33;22.55;;;;;;;2.23;88.55;100735.16;5082517;28;20062;-76
2020/12/02 05:49:34;;;;;;;43.80;22.42;;;;;;;2.17;88.74;100736.09;5080319;28;20119;-76
2020/12/02 05:52:01;;;;;;;43.08;21.60;;;;;;;2.17;88.77;100730.88;5102760;28;20135;-76
2020/12/02 05:54:32;;;;;;;45.72;22.83;;;;;;;2.17;89.35;100730.88;5100454;28;20119;-77
2020/12/02 05:57:01;;;;;;;;;;;;;;;2.18;89.18;100732.59;5102769;28;20058;-78
2020/12/02 05:59:27;;;;;;;40.97;20.83;;;;;;;2.18;89.33;100731.72;5086443;28;19946;-78
2020/12/02 06:01:56;;;;;;;41.10;21.63;;;;;;;2.20;88.76;100727.38;5090227;28;20059;-79
2020/12/02 06:04:25;;;;;;;38.92;21.27;;;;;;;2.20;88.73;100725.63;5097290;28;20093;-78
2020/12/02 06:06:56;;;;;;;45.50;21.98;;;;;;;2.20;88.76;100725.63;5099506;28;20044;-78
2020/12/02 06:09:44;;;;;;;42.17;22.20;;;;;;;2.24;88.67;100735.16;5113473;28;20070;-80
2020/12/02 06:12:13;;;;;;;41.97;22.02;;;;;;;2.25;87.97;100728.19;5095648;28;20081;-79
2020/12/02 06:14:40;;;;;;;41.50;21.73;;;;;;;2.28;88.70;100729.03;5085487;28;20067;-79
2020/12/02 06:17:10;;;;;;;42.47;22.13;;;;;;;2.30;87.94;100722.03;5084406;28;20471;-79
2020/12/02 06:19:50;;;;;;;39.30;20.90;;;;;;;2.30;87.89;100722.03;5073886;28;20048;-80
2020/12/02 06:22:35;;;;;;;40.53;21.05;;;;;;;2.29;87.29;100719.44;5079342;28;20048;-82
2020/12/02 06:25:01;;;;;;;41.03;21.88;;;;;;;2.22;87.67;100716.00;5074662;28;20902;-80
2020/12/02 06:27:34;;;;;;;42.65;22.25;;;;;;;2.22;87.66;100718.59;5074083;28;20052;-79
2020/12/02 06:30:04;;;;;;;35.63;20.10;;;;;;;2.24;86.18;100714.25;5082374;28;20052;-80
2020/12/02 06:32:32;;;;;;;39.90;21.02;;;;;;;2.20;86.19;100720.41;5080953;28;20814;-78
2020/12/02 06:35:19;;;;;;;40.28;21.40;;;;;;;2.19;86.44;100717.78;5076448;28;20052;-80
2020/12/02 06:38:11;;;;;;;35.45;20.15;;;;;;;2.18;86.62;100713.44;5079057;28;20044;-79
2020/12/02 06:41:06;;;;;;;36.35;19.83;;;;;;;2.19;86.30;100723.00;5071745;28;20480;-80
2020/12/02 06:43:43;;;;;;;35.03;19.08;;;;;;;2.17;85.47;100709.97;5075384;28;20051;-81
2020/12/02 06:46:12;;;;;;;35.10;19.83;;;;;;;2.17;84.50;100704.75;5078762;28;20135;-79
2020/12/02 06:48:39;;;;;;;34.35;19.65;;;;;;;2.18;84.96;100714.31;5070206;28;20052;-81
2020/12/02 06:51:13;;;;;;;33.35;19.17;;;;;;;2.15;84.96;100711.72;5074872;28;20056;-78
2020/12/02 06:53:40;;;;;;;35.63;19.70;;;;;;;2.18;85.62;100713.44;5080472;28;20058;-76
2020/12/02 06:56:16;;;;;;;36.85;19.85;;;;;;;2.14;84.80;100714.34;5078102;28;20070;-76
2020/12/02 06:59:00;;;;;;;37.15;19.85;;;;;;;2.14;85.35;100716.94;5077556;28;20051;-81
2020/12/02 07:01:28;;;;;;;33.70;19.40;;;;;;;2.13;84.73;100717.81;5085801;28;20054;-78
2020/12/02 07:03:59;;;;;;;38.70;20.00;;;;;;;2.10;84.82;100709.13;5095742;28;20043;-81
2020/12/02 07:06:31;;;;;;;43.90;22.75;;;;;;;2.11;84.90;100718.69;5095442;28;20048;-79
2020/12/02 07:09:14;;;;;;;37.92;20.95;;;;;;;2.13;85.80;100718.69;5078017;28;20498;-79
2020/12/02 07:12:06;;;;;;;35.10;19.70;;;;;;;2.14;85.65;100720.44;5083933;28;20059;-80
2020/12/02 07:14:38;;;;;;;36.63;20.40;;;;;;;2.18;85.77;100716.94;5082046;28;20044;-80
2020/12/02 07:17:08;;;;;;;37.92;20.33;;;;;;;2.20;85.46;100717.78;5082794;28;20040;-79
2020/12/02 07:19:40;;;;;;;40.88;21.02;;;;;;;2.19;84.41;100715.19;5080094;28;20066;-79
2020/12/02 07:22:26;;;;;;;43.78;21.58;;;;;;;2.16;84.30;100723.91;5084945;28;20101;-77
2020/12/02 07:24:59;;;;;;;53.05;20.55;;;;;;;2.15;84.57;100723.91;5078732;28;20062;-80
2020/12/02 07:27:26;;;;;;;33.33;17.52;;;;;;;2.13;83.61;100716.09;5084944;28;20143;-79
2020/12/02 07:29:59;;;;;;;32.78;17.50;;;;;;;2.12;83.92;100716.97;5095289;28;20525;-79
2020/12/02 07:32:26;;;;;;;35.83;18.10;;;;;;;2.15;82.98;100716.06;5084664;28;20590;-79
2020/12/02 07:35:15;;;;;;;37.00;19.63;;;;;;;2.15;84.18;100716.94;5090600;28;20060;-79
2020/12/02 07:37:44;;;;;;;;;;;;;;;2.18;83.83;100726.50;5080336;28;20100;-77
2020/12/02 07:40:34;;;;;;;37.47;18.92;;;;;;;2.21;84.07;100727.31;5077800;28;19931;-80
2020/12/02 07:43:03;;;;;;;37.63;19.40;;;;;;;2.22;83.91;100718.59;5084309;27;20775;-78
2020/12/02 07:45:34;;;;;;;39.97;19.70;;;;;;;2.26;83.64;100720.31;5075965;28;20043;-76
2020/12/02 07:48:15;;;;;;;38.10;19.35;;;;;;;2.25;83.40;100723.81;5080262;28;20754;-79
2020/12/02 07:50:53;;;;;;;36.53;18.23;;;;;;;2.25;82.90;100723.81;5080133;28;20051;-76
2020/12/02 07:53:39;;;;;;;35.40;20.23;;;;;;;2.20;82.87;100724.75;5078176;28;20052;-79
2020/12/02 07:56:14;;;;;;;41.53;20.50;;;;;;;2.18;83.58;100716.06;5079075;28;20051;-78
2020/12/02 07:58:41;;;;;;;44.63;21.73;;;;;;;2.18;83.90;100711.69;5076028;28;20075;-78
2020/12/02 08:01:43;;;;;;;45.03;22.50;;;;;;;2.25;84.17;100722.94;5080425;28;20132;-77
2020/12/02 08:04:32;;;;;;;42.90;21.67;;;;;;;2.31;84.17;100717.69;5077814;28;20036;-80
2020/12/02 08:07:16;;;;;;;45.90;22.13;;;;;;;2.36;83.33;100716.75;5081607;28;20048;-79
2020/12/02 08:09:48;;;;;;;43.92;22.27;;;;;;;2.40;83.07;100713.22;5081562;28;20046;-80
2020/12/02 08:12:27;;;;;;;50.92;23.00;;;;;;;2.37;83.16;100721.09;5082174;28;20052;-80
2020/12/02 08:15:10;;;;;;;45.10;22.55;;;;;;;2.36;83.38;100718.53;5094421;28;20060;-81
2020/12/02 08:17:40;;;;;;;47.95;21.88;;;;;;;2.35;82.89;100720.28;5098943;28;20371;-82
2020/12/02 08:20:27;;;;;;;44.10;21.23;;;;;;;2.32;82.69;100719.44;5102487;28;20114;-81
2020/12/02 08:22:57;;;;;;;39.42;21.30;;;;;;;2.32;83.64;100714.19;5102302;28;20044;-76
2020/12/02 08:25:33;;;;;;;36.95;19.30;;;;;;;2.39;82.48;100710.63;5085357;28;20436;-77
2020/12/02 08:28:06;;;;;;;42.97;19.48;;;;;;;2.34;81.60;100702.00;5085806;28;20105;-80
2020/12/02 08:30:33;;;;;;;41.58;21.10;;;;;;;2.37;82.07;100699.31;5085454;28;20044;-79
2020/12/02 08:33:19;;;;;;;43.35;22.20;;;;;;;2.40;82.83;100712.38;5102702;28;20093;-82
2020/12/02 08:35:50;;;;;;;47.35;21.75;;;;;;;2.40;82.91;100702.78;5106094;28;20024;-82
2020/12/02 08:38:20;;;;;;;46.70;21.25;;;;;;;2.45;82.23;100719.31;5096548;28;20086;-82
2020/12/02 08:40:49;;;;;;;46.27;21.90;;;;;;;2.50;82.55;100714.03;5103600;28;20042;-80
2020/12/02 08:43:34;;;;;;;44.20;21.48;;;;;;;2.55;83.13;100711.34;5089260;28;20502;-76
2020/12/02 08:46:19;;;;;;;43.72;22.35;;;;;;;2.60;82.62;100707.84;5086738;28;20048;-79
2020/12/02 08:48:50;;;;;;;45.25;22.33;;;;;;;2.60;82.21;100710.44;5082434;28;20048;-78
2020/12/02 08:51:19;;;;;;;41.63;21.95;;;;;;;2.61;82.71;100712.19;5077799;28;20044;-79
2020/12/02 08:53:47;;;;;;;43.92;21.27;;;;;;;2.69;83.46;100712.09;5091570;28;20115;-78
2020/12/02 08:56:33;;;;;;;42.83;21.83;;;;;;;2.72;83.00;100709.44;5098314;28;20048;-79
2020/12/02 08:59:04;;;;;;;48.10;23.55;;;;;;;2.76;83.07;100704.19;5085669;28;20142;-79
2020/12/02 09:01:30;;;;;;;43.95;22.10;;;;;;;2.78;83.32;100710.28;5079863;28;20045;-79
2020/12/02 09:03:57;;;;;;;42.28;22.05;;;;;;;2.77;83.13;100707.66;5080932;28;20051;-79
2020/12/02 09:06:25;;;;;;;39.45;21.50;;;;;;;2.79;82.94;100703.28;5082826;28;20054;-78
2020/12/02 09:08:53;;;;;;;42.38;22.25;;;;;;;2.83;83.25;100700.59;5084606;28;20048;-80
2020/12/02 09:11:29;;;;;;;40.80;21.77;;;;;;;2.87;83.00;100693.59;5086352;28;20055;-78
2020/12/02 09:13:57;;;;;;;40.60;21.35;;;;;;;2.88;82.53;100697.94;5080479;28;20437;-77
2020/12/02 09:16:43;;;;;;;44.85;22.95;;;;;;;2.88;83.46;100699.69;5076600;28;20050;-80
2020/12/02 09:19:12;;;;;;;39.53;21.63;;;;;;;2.87;83.12;100693.59;5077451;28;20056;-77
2020/12/02 09:21:44;;;;;;;41.58;21.52;;;;;;;2.90;82.96;100693.56;5085881;28;20477;-79
2020/12/02 09:24:11;;;;;;;39.10;20.67;;;;;;;2.93;82.70;100688.31;5079124;28;20054;-78
2020/12/02 09:26:38;;;;;;;39.40;20.55;;;;;;;2.93;82.30;100688.31;5078292;28;20064;-78
2020/12/02 09:29:07;;;;;;;40.72;21.40;;;;;;;2.93;81.86;100688.31;5081801;28;20491;-82
2020/12/02 09:31:34;;;;;;;38.97;20.63;;;;;;;2.95;82.53;100683.06;5084132;28;20044;-78
2020/12/02 09:34:03;;;;;;;37.83;19.63;;;;;;;2.97;81.93;100684.78;5087249;28;20054;-79
2020/12/02 09:36:30;;;;;;;39.80;21.17;;;;;;;2.99;82.05;100687.41;5079783;28;20050;-77
2020/12/02 09:38:56;;;;;;;39.33;20.67;;;;;;;3.02;81.20;100679.47;5075752;28;20052;-77
2020/12/02 09:41:32;;;;;;;37.83;19.33;;;;;;;3.02;81.67;100692.56;5080912;28;20056;-80
2020/12/02 09:44:26;;;;;;;38.33;19.88;;;;;;;3.00;81.42;100683.88;5085222;28;20054;-77
2020/12/02 09:46:55;;;;;;;41.65;22.00;;;;;;;3.04;81.18;100675.09;5077815;28;20060;-79
2020/12/02 09:49:22;;;;;;;41.38;22.02;;;;;;;3.02;81.69;100675.13;5080738;28;20139;-78
2020/12/02 09:52:01;;;;;;;38.58;21.42;;;;;;;2.98;80.88;100673.44;5094549;28;20055;-79
2020/12/02 09:54:28;;;;;;;40.90;22.27;;;;;;;2.98;81.97;100669.97;5095481;28;20044;-80
2020/12/02 09:56:55;;;;;;;40.92;21.13;;;;;;;3.06;81.81;100661.13;5089747;28;20123;-77
2020/12/02 09:59:21;;;;;;;38.58;21.45;;;;;;;3.09;80.98;100668.94;5086470;28;20132;-77
2020/12/02 10:02:25;;;;;;;39.17;19.95;;;;;;;3.10;80.41;100667.19;5084461;28;20048;-78
2020/12/02 10:05:00;;;;;;;37.70;19.42;;;;;;;3.07;79.94;100665.47;5077451;28;20046;-77
2020/12/02 10:07:48;;;;;;;37.72;20.20;;;;;;;3.08;80.34;100656.75;5077582;28;20056;-79
2020/12/02 10:10:38;;;;;;;35.72;20.48;;;;;;;3.11;80.40;100651.47;5079581;28;20048;-78
2020/12/02 10:13:26;;;;;;;36.63;19.63;;;;;;;3.16;80.59;100656.63;5089666;28;20059;-82
2020/12/02 10:16:25;;;;;;;35.55;18.88;;;;;;;3.15;80.05;100647.03;5096332;28;20056;-78
2020/12/02 10:19:01;;;;;;;36.53;19.17;;;;;;;3.16;79.38;100640.94;5095616;28;20112;-76
2020/12/02 10:21:43;;;;;;;33.13;17.95;;;;;;;3.18;79.60;100644.41;5098875;28;20081;-77
2020/12/02 10:24:38;;;;;;;33.72;18.33;;;;;;;3.14;79.06;100638.38;5087614;28;20134;-77
2020/12/02 10:27:44;;;;;;;31.30;18.38;;;;;;;3.15;78.88;100632.22;5084551;28;20051;-78
2020/12/02 10:30:19;;;;;;;33.47;18.08;;;;;;;3.12;78.98;100627.03;5085892;28;20171;-77
2020/12/02 10:32:52;;;;;;;34.08;18.35;;;;;;;3.14;79.37;100629.66;5091019;28;20044;-79
2020/12/02 10:35:19;;;;;;;32.67;17.27;;;;;;;3.16;79.78;100612.16;5081942;28;20048;-78
2020/12/02 10:37:47;;;;;;;34.47;19.48;;;;;;;3.10;78.68;100596.53;5081360;28;20054;-78
2020/12/02 10:40:15;;;;;;;33.15;18.10;;;;;;;3.17;78.81;100604.28;5080197;28;20044;-77
2020/12/02 10:43:26;;;;;;;32.90;19.13;;;;;;;3.14;78.90;100593.88;5073186;28;20044;-77
2020/12/02 10:45:59;;;;;;;30.25;17.15;;;;;;;3.14;78.37;100590.41;5083403;28;20063;-77
2020/12/02 10:48:41;;;;;;;36.33;19.13;;;;;;;3.10;77.86;100588.69;5080275;28;20036;-78
2020/12/02 10:51:13;;;;;;;39.10;21.10;;;;;;;2.99;78.93;100577.53;5087366;28;20063;-78
2020/12/02 10:53:42;;;;;;;40.08;21.08;;;;;;;3.04;79.43;100581.78;5085114;28;20052;-81
2020/12/02 10:56:09;;;;;;;35.35;19.05;;;;;;;3.07;79.89;100576.53;5080693;28;20044;-78
2020/12/02 10:58:36;;;;;;;31.25;17.00;;;;;;;3.14;79.09;100574.69;5086394;28;20063;-80
2020/12/02 11:01:07;;;;;;;35.45;17.95;;;;;;;3.15;77.57;100573.78;5087329;28;20052;-77
2020/12/02 11:03:36;;;;;;;32.95;17.67;;;;;;;3.08;77.97;100567.78;5080277;28;20043;-78
2020/12/02 11:06:16;;;;;;;29.75;17.60;;;;;;;3.04;78.15;100563.47;5085197;28;20439;-78
2020/12/02 11:09:15;;;;;;;;;;;;;;;3.06;77.35;100561.72;5085193;28;20434;-77
2020/12/02 11:12:14;;;;;;;32.05;17.17;;;;;;;3.09;78.14;100559.06;5091143;28;19936;-78
2020/12/02 11:15:08;;;;;;;33.22;17.67;;;;;;;3.13;78.05;100549.41;5103055;28;20024;-80
2020/12/02 11:18:18;;;;;;;34.08;17.83;;;;;;;3.18;79.31;100548.44;5102257;28;20048;-76
2020/12/02 11:20:50;;;;;;;32.95;17.60;;;;;;;3.23;78.80;100544.91;5101865;28;20051;-79
2020/12/02 11:23:28;;;;;;;32.45;17.95;;;;;;;3.21;78.59;100539.69;5116760;28;20073;-77
2020/12/02 11:26:06;;;;;;;32.70;18.10;;;;;;;3.25;78.53;100530.03;5094268;28;20484;-78
2020/12/02 11:28:32;;;;;;;32.67;18.30;;;;;;;3.25;78.76;100527.44;5086863;28;20454;-78
2020/12/02 11:31:10;;;;;;;34.30;17.95;;;;;;;3.27;78.89;100525.66;5083575;28;20505;-78
2020/12/02 11:33:50;;;;;;;34.05;17.80;;;;;;;3.30;78.83;100529.09;5088420;28;20455;-78
2020/12/02 11:36:44;;;;;;;34.33;18.73;;;;;;;3.29;79.22;100522.13;5086848;28;20044;-77
2020/12/02 11:39:19;;;;;;;41.92;22.80;;;;;;;3.30;78.67;100525.63;5093677;28;20146;-78
2020/12/02 11:42:10;;;;;;;36.05;19.67;;;;;;;3.29;78.82;100503.81;5098231;28;20048;-77
2020/12/02 11:45:00;;;;;;;40.90;19.55;;;;;;;3.32;79.24;100503.75;5084686;28;20153;-77
2020/12/02 11:47:58;;;;;;;37.20;19.23;;;;;;;3.32;78.23;100501.13;5082899;28;20110;-77